メインページ
METAR-TAF:

METAR-TAF

空港 :

ヒヒフォ空港

ウォリス, フランス

緯度: 13-14S, 経度: 176-10W, 海抜: 23m

現時点の気象観測

当レポートは34分前の13:30(UTC)に作成
の風 5kt
気温 28°C
湿度 89%
気圧 1010 hPa
視程10km以上

METAR: NLWW 241330Z AUTO 09005KT 9999 NCD 28/26 Q1010 TEMPO 2000 TSRA BKN014 SCT020CB

時間: 02:04 (14:04 UTC)

予報

当レポートは1時間51分前の12:13(UTC)に作成
予報は24日の 12時(UTC)から 25日の 12時(UTC)まで有効
の風 8kt
視程10km以上
高度1400ftの千切れ雲あり
24日の 12時(UTC)から 25日の 12時(UTC)まで一時的に
視程: 4000m
高度2000ftの雲はほとんどない, 積乱雲.
にわか雨
確率 40% :
24日の 15時(UTC)から 25日の 03時(UTC)まで一時的に
視程: 2000m
高度1400ftの千切れ雲あり
高度2000ftの雲は散在している, 積乱雲.
激しい雷雨, 雨,

TAF: NLWW 241213Z 2412/2512 10008KT 9999 BKN014 TEMPO 2412/2512 4000 SHRA FEW020CB PROB40 TEMPO 2415/2503 2000 TSRA BKN014 SCT020CB

4,000以上の空港の気象観測と天気予報(METAR報とTAF報)

利用可能な観測所は地図上に黄色い丸と赤い丸で示す。

丸の上にカーソルを重ねると観測所名を参照できる。

次にクリックすると気象観測と天気予報を参照できる。

マップの切り替え:黒色「×」印の緑ボタンをクリックして拡大、「-」印の緑ボタンをクリックして縮小、緑色の三角印をクリックして隣りの地図に切り替え


METAR-TAF: